ACA765 KBOS-CYYZ
Flight info
| Callsign | ACA765 |
|---|---|
| Flight time | 1h 16m |
| Altitude | 40000 |
| Route | HYLND7 HYLND DCT CAM Q822 GONZZ DCT WOZEE LINNG3 |
| Aircraft | B77W/H-SDE1E2E3FGHIJ2J3J4J5M1RWXY/LB1D1 |
Departure
| Time | 2026-05-08 00:16 |
|---|---|
| Airport | Boston Logan International Airport (KBOS) |
Arrival
| Time | 2026-05-08 01:32 |
|---|---|
| Airport | Toronto Pearson International Airport (CYYZ) |
| Time | Latitude | Longitude | Altitude | Speed | Heading |
|---|---|---|---|---|---|
| 2026-05-07 23:43 | 42.36206 | -71.02193 | 27 ft | 0 kts | 130° |
| 2026-05-08 00:01 | 42.36208 | -71.02197 | 29 ft | 3 kts | 143° |
| 2026-05-08 00:01 | 42.36227 | -71.02213 | 28 ft | 4 kts | 161° |
| 2026-05-08 00:02 | 42.36250 | -71.02216 | 14 ft | 4 kts | 210° |
| 2026-05-08 00:02 | 42.36268 | -71.02191 | 27 ft | 4 kts | 247° |
| 2026-05-08 00:02 | 42.36274 | -71.02167 | 27 ft | 1 kts | 253° |
| 2026-05-08 00:07 | 42.36274 | -71.02168 | 27 ft | 1 kts | 254° |
| 2026-05-08 00:07 | 42.36235 | -71.02260 | 16 ft | 16 kts | 242° |
| 2026-05-08 00:07 | 42.36165 | -71.02348 | 30 ft | 13 kts | 191° |
| 2026-05-08 00:07 | 42.36054 | -71.02286 | 29 ft | 19 kts | 137° |
| 2026-05-08 00:08 | 42.35981 | -71.02137 | 30 ft | 19 kts | 120° |
| 2026-05-08 00:08 | 42.35912 | -71.01982 | 31 ft | 19 kts | 121° |
| 2026-05-08 00:08 | 42.35854 | -71.01819 | 33 ft | 19 kts | 105° |
| 2026-05-08 00:08 | 42.35825 | -71.01642 | 35 ft | 19 kts | 96° |
| 2026-05-08 00:09 | 42.35888 | -71.01552 | 34 ft | 14 kts | 23° |
| 2026-05-08 00:09 | 42.35980 | -71.01493 | 33 ft | 15 kts | 27° |
| 2026-05-08 00:09 | 42.36083 | -71.01454 | 34 ft | 15 kts | 17° |
| 2026-05-08 00:09 | 42.36187 | -71.01405 | 31 ft | 17 kts | 21° |
| 2026-05-08 00:10 | 42.36304 | -71.01345 | 29 ft | 14 kts | 33° |
| 2026-05-08 00:10 | 42.36305 | -71.01242 | 32 ft | 12 kts | 112° |
| 2026-05-08 00:10 | 42.36264 | -71.01148 | 32 ft | 12 kts | 118° |
| 2026-05-08 00:10 | 42.36214 | -71.01003 | 31 ft | 20 kts | 114° |
| 2026-05-08 00:11 | 42.36163 | -71.00847 | 30 ft | 0 kts | 115° |
| 2026-05-08 00:11 | 42.36153 | -71.00817 | 29 ft | 13 kts | 114° |
| 2026-05-08 00:12 | 42.36101 | -71.00636 | 27 ft | 19 kts | 108° |
| 2026-05-08 00:12 | 42.36060 | -71.00469 | 30 ft | 19 kts | 109° |
| 2026-05-08 00:12 | 42.36018 | -71.00302 | 31 ft | 19 kts | 109° |
| 2026-05-08 00:12 | 42.35974 | -71.00137 | 34 ft | 19 kts | 112° |
| 2026-05-08 00:13 | 42.35921 | -71.00029 | 34 ft | 15 kts | 134° |
| 2026-05-08 00:13 | 42.35842 | -70.99922 | 35 ft | 16 kts | 135° |
| 2026-05-08 00:13 | 42.35736 | -70.99781 | 33 ft | 27 kts | 136° |
| 2026-05-08 00:13 | 42.35601 | -70.99599 | 31 ft | 27 kts | 135° |
| 2026-05-08 00:14 | 42.35502 | -70.99458 | 30 ft | 19 kts | 121° |
| 2026-05-08 00:14 | 42.35494 | -70.99399 | 31 ft | 0 kts | 87° |
| 2026-05-08 00:14 | 42.35494 | -70.99394 | 31 ft | 5 kts | 85° |
| 2026-05-08 00:14 | 42.35533 | -70.99296 | 32 ft | 2 kts | 25° |
| 2026-05-08 00:15 | 42.35593 | -70.99333 | 30 ft | 21 kts | 318° |
| 2026-05-08 00:15 | 42.35629 | -70.99382 | 30 ft | 20 kts | 315° |
| 2026-05-08 00:15 | 42.35918 | -70.99770 | 36 ft | 101 kts | 315° |
| 2026-05-08 00:15 | 42.36607 | -71.00679 | 132 ft | 160 kts | 314° |
| 2026-05-08 00:16 | 42.37425 | -71.01699 | 986 ft | 163 kts | 315° |
| 2026-05-08 00:16 | 42.38225 | -71.02745 | 2052 ft | 155 kts | 311° |
| 2026-05-08 00:16 | 42.38818 | -71.03984 | 2785 ft | 159 kts | 298° |
| 2026-05-08 00:16 | 42.39364 | -71.05315 | 3470 ft | 167 kts | 300° |
| 2026-05-08 00:17 | 42.39971 | -71.06754 | 3849 ft | 193 kts | 300° |
| 2026-05-08 00:17 | 42.40691 | -71.08463 | 4138 ft | 223 kts | 300° |
| 2026-05-08 00:17 | 42.41765 | -71.10060 | 4685 ft | 240 kts | 326° |
| 2026-05-08 00:17 | 42.43320 | -71.11026 | 5427 ft | 252 kts | 336° |
| 2026-05-08 00:18 | 42.44969 | -71.11911 | 6359 ft | 258 kts | 336° |
| 2026-05-08 00:18 | 42.46652 | -71.12814 | 7347 ft | 261 kts | 335° |
| 2026-05-08 00:18 | 42.48347 | -71.13733 | 8339 ft | 265 kts | 335° |
| 2026-05-08 00:18 | 42.50075 | -71.14674 | 9297 ft | 269 kts | 334° |
| 2026-05-08 00:19 | 42.51829 | -71.15605 | 10236 ft | 273 kts | 335° |
| 2026-05-08 00:19 | 42.53687 | -71.16473 | 10806 ft | 295 kts | 336° |
| 2026-05-08 00:19 | 42.55743 | -71.17401 | 11043 ft | 328 kts | 336° |
| 2026-05-08 00:19 | 42.58001 | -71.18413 | 11442 ft | 353 kts | 336° |
| 2026-05-08 00:20 | 42.60373 | -71.19471 | 12357 ft | 364 kts | 336° |
| 2026-05-08 00:20 | 42.62816 | -71.20563 | 13434 ft | 372 kts | 335° |
| 2026-05-08 00:20 | 42.65291 | -71.21677 | 14441 ft | 379 kts | 334° |
| 2026-05-08 00:20 | 42.67820 | -71.22823 | 15401 ft | 388 kts | 334° |
| 2026-05-08 00:21 | 42.70408 | -71.24001 | 16312 ft | 396 kts | 333° |
| 2026-05-08 00:21 | 42.73049 | -71.25206 | 17225 ft | 404 kts | 332° |
| 2026-05-08 00:21 | 42.75542 | -71.26818 | 17913 ft | 393 kts | 314° |
| 2026-05-08 00:21 | 42.77385 | -71.29457 | 18716 ft | 379 kts | 295° |
| 2026-05-08 00:22 | 42.78577 | -71.32589 | 19709 ft | 369 kts | 283° |
| 2026-05-08 00:22 | 42.79186 | -71.35933 | 20592 ft | 363 kts | 274° |
| 2026-05-08 00:22 | 42.79576 | -71.39359 | 21372 ft | 369 kts | 272° |
| 2026-05-08 00:22 | 42.79930 | -71.42845 | 22243 ft | 373 kts | 272° |
| 2026-05-08 00:23 | 42.80281 | -71.46373 | 23142 ft | 377 kts | 272° |
| 2026-05-08 00:23 | 42.80641 | -71.49927 | 23901 ft | 381 kts | 272° |
| 2026-05-08 00:23 | 42.81013 | -71.53524 | 24596 ft | 385 kts | 272° |
| 2026-05-08 00:23 | 42.81360 | -71.56805 | 25271 ft | 389 kts | 272° |
| 2026-05-08 00:24 | 42.81752 | -71.60463 | 25961 ft | 392 kts | 272° |
| 2026-05-08 00:24 | 42.82151 | -71.64158 | 26636 ft | 395 kts | 272° |
| 2026-05-08 00:24 | 42.82554 | -71.67882 | 27279 ft | 399 kts | 272° |
| 2026-05-08 00:24 | 42.82962 | -71.71647 | 27892 ft | 403 kts | 272° |
| 2026-05-08 00:25 | 42.83372 | -71.75438 | 28511 ft | 406 kts | 272° |
| 2026-05-08 00:25 | 42.83784 | -71.79260 | 29077 ft | 410 kts | 272° |
| 2026-05-08 00:25 | 42.84199 | -71.83119 | 29605 ft | 413 kts | 272° |
| 2026-05-08 00:25 | 42.84614 | -71.87003 | 30069 ft | 416 kts | 272° |
| 2026-05-08 00:26 | 42.85033 | -71.90920 | 30444 ft | 419 kts | 272° |
| 2026-05-08 00:26 | 42.85452 | -71.94851 | 30955 ft | 419 kts | 272° |
| 2026-05-08 00:26 | 42.85871 | -71.98769 | 31495 ft | 417 kts | 272° |
| 2026-05-08 00:26 | 42.86279 | -72.02613 | 32011 ft | 415 kts | 272° |
| 2026-05-08 00:27 | 42.86690 | -72.06503 | 32502 ft | 415 kts | 272° |
| 2026-05-08 00:27 | 42.87099 | -72.10391 | 32951 ft | 414 kts | 272° |
| 2026-05-08 00:27 | 42.87504 | -72.14271 | 33401 ft | 414 kts | 272° |
| 2026-05-08 00:27 | 42.87908 | -72.18149 | 33868 ft | 413 kts | 272° |
| 2026-05-08 00:28 | 42.88312 | -72.22034 | 34257 ft | 413 kts | 272° |
| 2026-05-08 00:28 | 42.88714 | -72.25910 | 34630 ft | 414 kts | 272° |
| 2026-05-08 00:28 | 42.89114 | -72.29796 | 35006 ft | 413 kts | 272° |
| 2026-05-08 00:28 | 42.89508 | -72.33621 | 35336 ft | 413 kts | 272° |
| 2026-05-08 00:29 | 42.89906 | -72.37511 | 35626 ft | 414 kts | 272° |
| 2026-05-08 00:29 | 42.90303 | -72.41402 | 35928 ft | 415 kts | 272° |
| 2026-05-08 00:29 | 42.90700 | -72.45310 | 36246 ft | 415 kts | 272° |
| 2026-05-08 00:29 | 42.91097 | -72.49212 | 36552 ft | 416 kts | 272° |
| 2026-05-08 00:30 | 42.91493 | -72.53130 | 36851 ft | 417 kts | 272° |
| 2026-05-08 00:30 | 42.91888 | -72.57049 | 37156 ft | 417 kts | 272° |
| 2026-05-08 00:30 | 42.92282 | -72.60971 | 37470 ft | 418 kts | 272° |
| 2026-05-08 00:30 | 42.92675 | -72.64899 | 37755 ft | 418 kts | 272° |
| 2026-05-08 00:31 | 42.93066 | -72.68827 | 38065 ft | 418 kts | 272° |
| 2026-05-08 00:31 | 42.93457 | -72.72760 | 38331 ft | 418 kts | 272° |
| 2026-05-08 00:31 | 42.93848 | -72.76695 | 38554 ft | 419 kts | 272° |
| 2026-05-08 00:31 | 42.94237 | -72.80637 | 38772 ft | 419 kts | 272° |
| 2026-05-08 00:32 | 42.94624 | -72.84578 | 38996 ft | 419 kts | 272° |
| 2026-05-08 00:32 | 42.95005 | -72.88472 | 39192 ft | 420 kts | 273° |
| 2026-05-08 00:32 | 42.95390 | -72.92429 | 39394 ft | 420 kts | 273° |
| 2026-05-08 00:32 | 42.95776 | -72.96394 | 39636 ft | 420 kts | 273° |
| 2026-05-08 00:33 | 42.96155 | -73.00309 | 39744 ft | 423 kts | 273° |
| 2026-05-08 00:33 | 42.96540 | -73.04300 | 39787 ft | 425 kts | 273° |
| 2026-05-08 00:33 | 42.97305 | -73.12257 | 39848 ft | 420 kts | 273° |
| 2026-05-08 00:34 | 42.98053 | -73.20095 | 39839 ft | 414 kts | 273° |
| 2026-05-08 00:34 | 42.98789 | -73.27869 | 39840 ft | 410 kts | 273° |
| 2026-05-08 00:35 | 42.99447 | -73.35590 | 39862 ft | 407 kts | 269° |
| 2026-05-08 00:35 | 42.99658 | -73.43317 | 39856 ft | 407 kts | 268° |
| 2026-05-08 00:36 | 42.99828 | -73.51002 | 39859 ft | 408 kts | 268° |
| 2026-05-08 00:36 | 43.00006 | -73.58772 | 39875 ft | 410 kts | 268° |
| 2026-05-08 00:37 | 43.00187 | -73.66574 | 39915 ft | 412 kts | 268° |
| 2026-05-08 00:38 | 43.00454 | -73.78347 | 39875 ft | 414 kts | 268° |
| 2026-05-08 00:38 | 43.00625 | -73.86197 | 39876 ft | 413 kts | 268° |
| 2026-05-08 00:39 | 43.00790 | -73.93992 | 39880 ft | 413 kts | 268° |
| 2026-05-08 00:39 | 43.00949 | -74.01766 | 39902 ft | 412 kts | 268° |
| 2026-05-08 00:40 | 43.01104 | -74.09601 | 39903 ft | 413 kts | 268° |
| 2026-05-08 00:40 | 43.01254 | -74.17442 | 39889 ft | 413 kts | 268° |
| 2026-05-08 00:41 | 43.01398 | -74.25286 | 39886 ft | 413 kts | 268° |
| 2026-05-08 00:41 | 43.01687 | -74.33126 | 39888 ft | 414 kts | 270° |
| 2026-05-08 00:42 | 43.02074 | -74.40986 | 39908 ft | 415 kts | 270° |
| 2026-05-08 00:42 | 43.02446 | -74.48873 | 39903 ft | 416 kts | 270° |
| 2026-05-08 00:43 | 43.02794 | -74.56740 | 39899 ft | 418 kts | 270° |
| 2026-05-08 00:43 | 43.03135 | -74.64674 | 39913 ft | 419 kts | 270° |
| 2026-05-08 00:44 | 43.03460 | -74.72403 | 39908 ft | 420 kts | 270° |
| 2026-05-08 00:44 | 43.03675 | -74.77585 | 39904 ft | 420 kts | 270° |
| 2026-05-08 00:45 | 43.04002 | -74.85559 | 39915 ft | 421 kts | 270° |
| 2026-05-08 00:45 | 43.04323 | -74.93547 | 39909 ft | 420 kts | 270° |
| 2026-05-08 00:46 | 43.04637 | -75.01458 | 39911 ft | 420 kts | 270° |
| 2026-05-08 00:46 | 43.04948 | -75.09439 | 39888 ft | 421 kts | 270° |
| 2026-05-08 00:47 | 43.05220 | -75.16549 | 39905 ft | 420 kts | 270° |
| 2026-05-08 00:47 | 43.05519 | -75.24501 | 39906 ft | 419 kts | 270° |
| 2026-05-08 00:48 | 43.05803 | -75.32451 | 39913 ft | 418 kts | 269° |
| 2026-05-08 00:48 | 43.06028 | -75.40385 | 39908 ft | 418 kts | 269° |
| 2026-05-08 00:49 | 43.06238 | -75.48323 | 39919 ft | 418 kts | 269° |
| 2026-05-08 00:49 | 43.06448 | -75.56277 | 39914 ft | 418 kts | 269° |
| 2026-05-08 00:49 | 43.06553 | -75.60186 | 39762 ft | 405 kts | 269° |
| 2026-05-08 00:50 | 43.06655 | -75.63993 | 39222 ft | 399 kts | 269° |
| 2026-05-08 00:50 | 43.06753 | -75.67780 | 38492 ft | 398 kts | 269° |
| 2026-05-08 00:50 | 43.06849 | -75.71567 | 37530 ft | 398 kts | 269° |
| 2026-05-08 00:50 | 43.06912 | -75.74095 | 37024 ft | 404 kts | 269° |
| 2026-05-08 00:51 | 43.07006 | -75.77942 | 36596 ft | 404 kts | 269° |
| 2026-05-08 00:51 | 43.07100 | -75.81776 | 36202 ft | 404 kts | 269° |
| 2026-05-08 00:51 | 43.07193 | -75.85621 | 35813 ft | 404 kts | 269° |
| 2026-05-08 00:51 | 43.07286 | -75.89462 | 35446 ft | 402 kts | 269° |
| 2026-05-08 00:52 | 43.07376 | -75.93279 | 35049 ft | 402 kts | 269° |
| 2026-05-08 00:52 | 43.07465 | -75.97093 | 34637 ft | 401 kts | 269° |
| 2026-05-08 00:52 | 43.07551 | -76.00844 | 34217 ft | 401 kts | 269° |
| 2026-05-08 00:52 | 43.07638 | -76.04654 | 33763 ft | 401 kts | 269° |
| 2026-05-08 00:53 | 43.07723 | -76.08462 | 33246 ft | 400 kts | 269° |
| 2026-05-08 00:53 | 43.07807 | -76.12256 | 32727 ft | 399 kts | 269° |
| 2026-05-08 00:53 | 43.07889 | -76.16046 | 32209 ft | 399 kts | 269° |
| 2026-05-08 00:53 | 43.07969 | -76.19830 | 32019 ft | 399 kts | 269° |
| 2026-05-08 00:54 | 43.08049 | -76.23633 | 31926 ft | 401 kts | 269° |
| 2026-05-08 00:54 | 43.08205 | -76.31271 | 31914 ft | 402 kts | 269° |
| 2026-05-08 00:55 | 43.08342 | -76.38165 | 31918 ft | 402 kts | 269° |
| 2026-05-08 00:55 | 43.08492 | -76.45944 | 31920 ft | 402 kts | 269° |
| 2026-05-08 00:56 | 43.08633 | -76.53533 | 31931 ft | 402 kts | 269° |
| 2026-05-08 00:56 | 43.08771 | -76.61209 | 31926 ft | 404 kts | 269° |
| 2026-05-08 00:57 | 43.08860 | -76.68894 | 31923 ft | 404 kts | 266° |
| 2026-05-08 00:57 | 43.08398 | -76.76535 | 31929 ft | 403 kts | 263° |
| 2026-05-08 00:58 | 43.07865 | -76.84183 | 31931 ft | 404 kts | 263° |
| 2026-05-08 00:58 | 43.07336 | -76.91839 | 31923 ft | 404 kts | 263° |
| 2026-05-08 00:59 | 43.06810 | -76.99475 | 31937 ft | 402 kts | 263° |
| 2026-05-08 00:59 | 43.06285 | -77.07026 | 31929 ft | 401 kts | 263° |
| 2026-05-08 01:00 | 43.05753 | -77.14609 | 31933 ft | 400 kts | 263° |
| 2026-05-08 01:00 | 43.05217 | -77.22184 | 31929 ft | 400 kts | 263° |
| 2026-05-08 01:01 | 43.04679 | -77.29710 | 31936 ft | 401 kts | 263° |
| 2026-05-08 01:01 | 43.04131 | -77.37303 | 31937 ft | 402 kts | 263° |
| 2026-05-08 01:02 | 43.03576 | -77.44920 | 31941 ft | 402 kts | 263° |
| 2026-05-08 01:02 | 43.03015 | -77.52546 | 31927 ft | 403 kts | 263° |
| 2026-05-08 01:03 | 43.02450 | -77.60162 | 31960 ft | 403 kts | 263° |
| 2026-05-08 01:03 | 43.01877 | -77.67811 | 31933 ft | 405 kts | 263° |
| 2026-05-08 01:04 | 43.01298 | -77.75486 | 31924 ft | 406 kts | 263° |
| 2026-05-08 01:04 | 43.00712 | -77.83172 | 31940 ft | 407 kts | 263° |
| 2026-05-08 01:05 | 43.00121 | -77.90856 | 31938 ft | 407 kts | 263° |
| 2026-05-08 01:05 | 42.99525 | -77.98539 | 31919 ft | 406 kts | 263° |
| 2026-05-08 01:05 | 42.99233 | -78.02268 | 31780 ft | 397 kts | 263° |
| 2026-05-08 01:06 | 42.98939 | -78.06015 | 31431 ft | 397 kts | 263° |
| 2026-05-08 01:06 | 42.98644 | -78.09767 | 31044 ft | 397 kts | 263° |
| 2026-05-08 01:06 | 42.98348 | -78.13513 | 30705 ft | 396 kts | 263° |
| 2026-05-08 01:06 | 42.98051 | -78.17245 | 30434 ft | 394 kts | 263° |
| 2026-05-08 01:07 | 42.97756 | -78.20945 | 30173 ft | 391 kts | 263° |
| 2026-05-08 01:07 | 42.97462 | -78.24621 | 29843 ft | 389 kts | 263° |
| 2026-05-08 01:07 | 42.97167 | -78.28281 | 29475 ft | 387 kts | 263° |
| 2026-05-08 01:07 | 42.96872 | -78.31934 | 29083 ft | 386 kts | 263° |
| 2026-05-08 01:08 | 42.96577 | -78.35572 | 28695 ft | 385 kts | 263° |
| 2026-05-08 01:08 | 42.96281 | -78.39204 | 28312 ft | 384 kts | 263° |
| 2026-05-08 01:08 | 42.95989 | -78.42779 | 27952 ft | 383 kts | 263° |
| 2026-05-08 01:08 | 42.95693 | -78.46394 | 27603 ft | 382 kts | 263° |
| 2026-05-08 01:09 | 42.95397 | -78.49990 | 27251 ft | 381 kts | 263° |
| 2026-05-08 01:09 | 42.95100 | -78.53579 | 26915 ft | 380 kts | 263° |
| 2026-05-08 01:09 | 42.94804 | -78.57151 | 26570 ft | 379 kts | 263° |
| 2026-05-08 01:09 | 42.94510 | -78.60694 | 25927 ft | 374 kts | 263° |
| 2026-05-08 01:10 | 42.94214 | -78.64235 | 24913 ft | 375 kts | 264° |
| 2026-05-08 01:10 | 42.93917 | -78.67765 | 23967 ft | 373 kts | 264° |
| 2026-05-08 01:10 | 42.93818 | -78.71281 | 22893 ft | 370 kts | 277° |
| 2026-05-08 01:10 | 42.94453 | -78.74674 | 21810 ft | 369 kts | 290° |
| 2026-05-08 01:11 | 42.95630 | -78.77778 | 20727 ft | 370 kts | 303° |
| 2026-05-08 01:11 | 42.97231 | -78.80514 | 19713 ft | 365 kts | 307° |
| 2026-05-08 01:11 | 42.98846 | -78.83112 | 18707 ft | 353 kts | 307° |
| 2026-05-08 01:11 | 43.00427 | -78.85652 | 17640 ft | 348 kts | 307° |
| 2026-05-08 01:12 | 43.01978 | -78.88171 | 16555 ft | 345 kts | 307° |
| 2026-05-08 01:12 | 43.03509 | -78.90684 | 15507 ft | 343 kts | 307° |
| 2026-05-08 01:12 | 43.05022 | -78.93186 | 14494 ft | 339 kts | 307° |
| 2026-05-08 01:12 | 43.06476 | -78.95598 | 13484 ft | 327 kts | 307° |
| 2026-05-08 01:13 | 43.07910 | -78.97985 | 12410 ft | 316 kts | 306° |
| 2026-05-08 01:13 | 43.09263 | -79.00240 | 11513 ft | 304 kts | 306° |
| 2026-05-08 01:13 | 43.10549 | -79.02380 | 11243 ft | 278 kts | 306° |
| 2026-05-08 01:13 | 43.11761 | -79.04405 | 11058 ft | 279 kts | 306° |
| 2026-05-08 01:14 | 43.12993 | -79.06471 | 11025 ft | 279 kts | 306° |
| 2026-05-08 01:14 | 43.13580 | -79.07453 | 11003 ft | 275 kts | 306° |
| 2026-05-08 01:14 | 43.14780 | -79.09456 | 10997 ft | 269 kts | 306° |
| 2026-05-08 01:14 | 43.15958 | -79.11425 | 11005 ft | 267 kts | 306° |
| 2026-05-08 01:15 | 43.17139 | -79.13404 | 11027 ft | 270 kts | 306° |
| 2026-05-08 01:15 | 43.18331 | -79.15402 | 11013 ft | 272 kts | 306° |
| 2026-05-08 01:15 | 43.19533 | -79.17416 | 11012 ft | 274 kts | 306° |
| 2026-05-08 01:15 | 43.20741 | -79.19443 | 11010 ft | 275 kts | 306° |
| 2026-05-08 01:16 | 43.21953 | -79.21475 | 11008 ft | 275 kts | 306° |
| 2026-05-08 01:16 | 43.23162 | -79.23506 | 11005 ft | 274 kts | 306° |
| 2026-05-08 01:16 | 43.24360 | -79.25518 | 10838 ft | 271 kts | 306° |
| 2026-05-08 01:16 | 43.25549 | -79.27515 | 10561 ft | 268 kts | 306° |
| 2026-05-08 01:17 | 43.25830 | -79.27988 | 10515 ft | 267 kts | 306° |
| 2026-05-08 01:17 | 43.26939 | -79.29853 | 10194 ft | 266 kts | 306° |
| 2026-05-08 01:17 | 43.28104 | -79.31816 | 9841 ft | 265 kts | 306° |
| 2026-05-08 01:17 | 43.29266 | -79.33774 | 9483 ft | 264 kts | 306° |
| 2026-05-08 01:18 | 43.30594 | -79.35486 | 8958 ft | 268 kts | 326° |
| 2026-05-08 01:18 | 43.32350 | -79.36413 | 8525 ft | 272 kts | 339° |
| 2026-05-08 01:18 | 43.34160 | -79.37157 | 8184 ft | 271 kts | 339° |
| 2026-05-08 01:18 | 43.35938 | -79.37905 | 8056 ft | 263 kts | 339° |
| 2026-05-08 01:19 | 43.37675 | -79.38640 | 8012 ft | 262 kts | 339° |
| 2026-05-08 01:19 | 43.39436 | -79.39392 | 8011 ft | 268 kts | 339° |
| 2026-05-08 01:19 | 43.41230 | -79.40163 | 8006 ft | 268 kts | 337° |
| 2026-05-08 01:19 | 43.42899 | -79.41259 | 8004 ft | 266 kts | 326° |
| 2026-05-08 01:20 | 43.44474 | -79.42602 | 7987 ft | 266 kts | 326° |
| 2026-05-08 01:20 | 43.46113 | -79.43822 | 7999 ft | 269 kts | 329° |
| 2026-05-08 01:20 | 43.47771 | -79.44971 | 7979 ft | 269 kts | 329° |
| 2026-05-08 01:20 | 43.49446 | -79.46124 | 7997 ft | 269 kts | 329° |
| 2026-05-08 01:21 | 43.51119 | -79.47269 | 7982 ft | 268 kts | 330° |
| 2026-05-08 01:21 | 43.52781 | -79.48404 | 7952 ft | 260 kts | 330° |
| 2026-05-08 01:21 | 43.54342 | -79.49459 | 7670 ft | 243 kts | 330° |
| 2026-05-08 01:21 | 43.55846 | -79.50471 | 7006 ft | 241 kts | 330° |
| 2026-05-08 01:22 | 43.57355 | -79.51490 | 6251 ft | 242 kts | 332° |
| 2026-05-08 01:22 | 43.58997 | -79.51981 | 5437 ft | 248 kts | 1° |
| 2026-05-08 01:22 | 43.60627 | -79.51235 | 4763 ft | 249 kts | 31° |
| 2026-05-08 01:22 | 43.61847 | -79.49586 | 4378 ft | 240 kts | 48° |
| 2026-05-08 01:23 | 43.62893 | -79.47794 | 4182 ft | 241 kts | 49° |
| 2026-05-08 01:23 | 43.63936 | -79.45976 | 4045 ft | 241 kts | 50° |
| 2026-05-08 01:23 | 43.64965 | -79.44176 | 4022 ft | 238 kts | 50° |
| 2026-05-08 01:23 | 43.65981 | -79.42391 | 4007 ft | 236 kts | 50° |
| 2026-05-08 01:24 | 43.66996 | -79.40615 | 4006 ft | 236 kts | 50° |
| 2026-05-08 01:24 | 43.68018 | -79.38838 | 4003 ft | 236 kts | 50° |
| 2026-05-08 01:24 | 43.69040 | -79.37065 | 4023 ft | 236 kts | 50° |
| 2026-05-08 01:24 | 43.70065 | -79.35286 | 4001 ft | 237 kts | 50° |
| 2026-05-08 01:25 | 43.71091 | -79.33506 | 4005 ft | 237 kts | 50° |
| 2026-05-08 01:25 | 43.72117 | -79.31726 | 4007 ft | 237 kts | 50° |
| 2026-05-08 01:25 | 43.73230 | -79.30090 | 4002 ft | 231 kts | 32° |
| 2026-05-08 01:25 | 43.74719 | -79.29411 | 4012 ft | 226 kts | 359° |
| 2026-05-08 01:26 | 43.76186 | -79.29943 | 4004 ft | 221 kts | 328° |
| 2026-05-08 01:26 | 43.77440 | -79.31173 | 4021 ft | 222 kts | 321° |
| 2026-05-08 01:26 | 43.78659 | -79.32505 | 4009 ft | 225 kts | 320° |
| 2026-05-08 01:26 | 43.79885 | -79.33855 | 4019 ft | 226 kts | 320° |
| 2026-05-08 01:27 | 43.81108 | -79.35211 | 4003 ft | 224 kts | 319° |
| 2026-05-08 01:27 | 43.82118 | -79.36803 | 3983 ft | 221 kts | 295° |
| 2026-05-08 01:27 | 43.82368 | -79.38892 | 3924 ft | 223 kts | 266° |
| 2026-05-08 01:27 | 43.82154 | -79.40986 | 3496 ft | 216 kts | 260° |
| 2026-05-08 01:28 | 43.81599 | -79.42834 | 3109 ft | 203 kts | 233° |
| 2026-05-08 01:28 | 43.80552 | -79.44159 | 3027 ft | 208 kts | 212° |
| 2026-05-08 01:28 | 43.79221 | -79.44945 | 3017 ft | 206 kts | 201° |
| 2026-05-08 01:28 | 43.77917 | -79.45547 | 2991 ft | 189 kts | 201° |
| 2026-05-08 01:29 | 43.76855 | -79.46423 | 3009 ft | 174 kts | 224° |
| 2026-05-08 01:29 | 43.75946 | -79.47556 | 3024 ft | 175 kts | 225° |
| 2026-05-08 01:29 | 43.75076 | -79.48736 | 2792 ft | 173 kts | 227° |
| 2026-05-08 01:29 | 43.74255 | -79.49921 | 2575 ft | 172 kts | 228° |
| 2026-05-08 01:30 | 43.73432 | -79.51120 | 2330 ft | 171 kts | 229° |
| 2026-05-08 01:30 | 43.72616 | -79.52311 | 2079 ft | 170 kts | 229° |
| 2026-05-08 01:30 | 43.71800 | -79.53501 | 1848 ft | 171 kts | 229° |
| 2026-05-08 01:30 | 43.70978 | -79.54699 | 1616 ft | 172 kts | 229° |
| 2026-05-08 01:31 | 43.70155 | -79.55896 | 1389 ft | 170 kts | 227° |
| 2026-05-08 01:31 | 43.69342 | -79.57074 | 1186 ft | 165 kts | 228° |
| 2026-05-08 01:31 | 43.68546 | -79.58261 | 997 ft | 171 kts | 228° |
| 2026-05-08 01:31 | 43.67730 | -79.59437 | 746 ft | 169 kts | 226° |
| 2026-05-08 01:32 | 43.66986 | -79.60519 | 580 ft | 143 kts | 228° |
| 2026-05-08 01:32 | 43.66389 | -79.61380 | 581 ft | 100 kts | 226° |
| 2026-05-08 01:32 | 43.66089 | -79.61823 | 588 ft | 35 kts | 227° |
| 2026-05-08 01:32 | 43.66016 | -79.61998 | 588 ft | 19 kts | 251° |
| 2026-05-08 01:33 | 43.65995 | -79.62180 | 580 ft | 22 kts | 293° |
| 2026-05-08 01:33 | 43.66098 | -79.62331 | 573 ft | 19 kts | 318° |
| 2026-05-08 01:33 | 43.66199 | -79.62467 | 571 ft | 20 kts | 320° |
| 2026-05-08 01:33 | 43.66305 | -79.62465 | 568 ft | 15 kts | 35° |
| 2026-05-08 01:34 | 43.66383 | -79.62368 | 568 ft | 15 kts | 42° |
| 2026-05-08 01:34 | 43.66462 | -79.62274 | 569 ft | 15 kts | 41° |
| 2026-05-08 01:34 | 43.66543 | -79.62174 | 567 ft | 17 kts | 42° |
| 2026-05-08 01:34 | 43.66631 | -79.62060 | 567 ft | 18 kts | 43° |
| 2026-05-08 01:35 | 43.66721 | -79.61947 | 564 ft | 18 kts | 43° |
| 2026-05-08 01:35 | 43.66817 | -79.61826 | 569 ft | 19 kts | 42° |
| 2026-05-08 01:35 | 43.66913 | -79.61704 | 572 ft | 19 kts | 43° |
| 2026-05-08 01:35 | 43.67009 | -79.61582 | 574 ft | 19 kts | 41° |
| 2026-05-08 01:36 | 43.67106 | -79.61461 | 573 ft | 19 kts | 43° |
| 2026-05-08 01:36 | 43.67202 | -79.61324 | 572 ft | 20 kts | 52° |
| 2026-05-08 01:36 | 43.67287 | -79.61169 | 572 ft | 21 kts | 53° |
| 2026-05-08 01:36 | 43.67359 | -79.61099 | 570 ft | 10 kts | 8° |
| 2026-05-08 01:37 | 43.67407 | -79.61101 | 570 ft | 11 kts | 353° |
| 2026-05-08 01:37 | 43.67467 | -79.61153 | 572 ft | 11 kts | 294° |
| 2026-05-08 01:37 | 43.67488 | -79.61265 | 571 ft | 13 kts | 283° |
| 2026-05-08 01:37 | 43.67518 | -79.61363 | 574 ft | 6 kts | 312° |
| 2026-05-08 01:38 | 43.67560 | -79.61375 | 574 ft | 8 kts | 21° |
| 2026-05-08 01:38 | 43.67595 | -79.61346 | 576 ft | 2 kts | 37° |
| 2026-05-08 01:38 | 43.67606 | -79.61333 | 576 ft | 2 kts | 39° |
| 2026-05-08 01:38 | 43.67618 | -79.61320 | 572 ft | 2 kts | 40° |
| 2026-05-08 01:39 | 43.67621 | -79.61316 | 568 ft | 0 kts | 40° |